sensor_id;sensor_type;location;lat;lon;timestamp;P1;durP1;ratioP1;P2;durP2;ratioP2
71091;SDS011;58751;50.708;7.134;2022-09-02T00:02:14;2.00;;;1.80;;
71091;SDS011;58751;50.708;7.134;2022-09-02T00:04:39;4.93;;;1.60;;
71091;SDS011;58751;50.708;7.134;2022-09-02T00:07:06;2.73;;;1.50;;
71091;SDS011;58751;50.708;7.134;2022-09-02T00:09:31;1.63;;;1.53;;
71091;SDS011;58751;50.708;7.134;2022-09-02T00:11:56;3.43;;;1.77;;
71091;SDS011;58751;50.708;7.134;2022-09-02T00:14:23;2.10;;;1.73;;
71091;SDS011;58751;50.708;7.134;2022-09-02T00:16:48;3.60;;;1.50;;
71091;SDS011;58751;50.708;7.134;2022-09-02T00:19:13;1.57;;;1.47;;
71091;SDS011;58751;50.708;7.134;2022-09-02T00:21:38;4.00;;;1.60;;
71091;SDS011;58751;50.708;7.134;2022-09-02T00:24:05;1.60;;;1.50;;
71091;SDS011;58751;50.708;7.134;2022-09-02T00:26:31;3.87;;;1.77;;
71091;SDS011;58751;50.708;7.134;2022-09-02T00:28:56;2.30;;;1.77;;
71091;SDS011;58751;50.708;7.134;2022-09-02T00:31:21;3.70;;;2.00;;
71091;SDS011;58751;50.708;7.134;2022-09-02T00:33:47;1.50;;;1.40;;
71091;SDS011;58751;50.708;7.134;2022-09-02T00:36:12;2.30;;;2.10;;
71091;SDS011;58751;50.708;7.134;2022-09-02T00:38:38;5.97;;;1.67;;
71091;SDS011;58751;50.708;7.134;2022-09-02T00:41:05;2.37;;;1.63;;
71091;SDS011;58751;50.708;7.134;2022-09-02T00:43:39;3.47;;;2.20;;
71091;SDS011;58751;50.708;7.134;2022-09-02T00:46:06;2.30;;;1.90;;
71091;SDS011;58751;50.708;7.134;2022-09-02T00:48:31;2.20;;;1.83;;
71091;SDS011;58751;50.708;7.134;2022-09-02T00:50:57;2.03;;;1.83;;
71091;SDS011;58751;50.708;7.134;2022-09-02T00:53:23;3.87;;;2.50;;
71091;SDS011;58751;50.708;7.134;2022-09-02T00:55:48;4.43;;;2.40;;
71091;SDS011;58751;50.708;7.134;2022-09-02T00:58:16;2.50;;;1.77;;
71091;SDS011;58751;50.708;7.134;2022-09-02T01:00:43;2.70;;;2.37;;
71091;SDS011;58751;50.708;7.134;2022-09-02T01:03:10;4.27;;;1.80;;
71091;SDS011;58751;50.708;7.134;2022-09-02T01:05:42;2.33;;;2.13;;
71091;SDS011;58751;50.708;7.134;2022-09-02T01:08:09;2.97;;;1.90;;
71091;SDS011;58751;50.708;7.134;2022-09-02T01:10:34;4.93;;;1.67;;
71091;SDS011;58751;50.708;7.134;2022-09-02T01:13:02;3.60;;;2.20;;
71091;SDS011;58751;50.708;7.134;2022-09-02T01:15:29;3.53;;;2.10;;
71091;SDS011;58751;50.708;7.134;2022-09-02T01:17:54;2.57;;;2.10;;
71091;SDS011;58751;50.708;7.134;2022-09-02T01:20:21;1.90;;;1.80;;
71091;SDS011;58751;50.708;7.134;2022-09-02T01:22:48;1.60;;;1.50;;
71091;SDS011;58751;50.708;7.134;2022-09-02T01:25:14;1.60;;;1.50;;
71091;SDS011;58751;50.708;7.134;2022-09-02T01:27:40;1.83;;;1.73;;
71091;SDS011;58751;50.708;7.134;2022-09-02T01:30:06;2.00;;;1.50;;
71091;SDS011;58751;50.708;7.134;2022-09-02T01:32:31;3.50;;;1.73;;
71091;SDS011;58751;50.708;7.134;2022-09-02T01:34:57;1.80;;;1.70;;
71091;SDS011;58751;50.708;7.134;2022-09-02T01:37:22;2.93;;;2.13;;
71091;SDS011;58751;50.708;7.134;2022-09-02T01:39:49;1.67;;;1.57;;
71091;SDS011;58751;50.708;7.134;2022-09-02T01:42:14;2.10;;;1.90;;
71091;SDS011;58751;50.708;7.134;2022-09-02T01:44:39;7.93;;;2.67;;
71091;SDS011;58751;50.708;7.134;2022-09-02T01:47:05;3.23;;;1.43;;
71091;SDS011;58751;50.708;7.134;2022-09-02T01:49:30;2.80;;;2.00;;
71091;SDS011;58751;50.708;7.134;2022-09-02T01:51:55;3.57;;;1.60;;
71091;SDS011;58751;50.708;7.134;2022-09-02T01:54:20;4.60;;;1.93;;
71091;SDS011;58751;50.708;7.134;2022-09-02T01:56:47;2.37;;;1.90;;
71091;SDS011;58751;50.708;7.134;2022-09-02T01:59:12;4.90;;;2.30;;
71091;SDS011;58751;50.708;7.134;2022-09-02T02:01:37;3.27;;;2.20;;
71091;SDS011;58751;50.708;7.134;2022-09-02T02:04:03;2.73;;;2.53;;
71091;SDS011;58751;50.708;7.134;2022-09-02T02:06:28;2.83;;;2.20;;
71091;SDS011;58751;50.708;7.134;2022-09-02T02:08:53;2.27;;;2.07;;
71091;SDS011;58751;50.708;7.134;2022-09-02T02:11:19;2.73;;;2.03;;
71091;SDS011;58751;50.708;7.134;2022-09-02T02:13:46;5.17;;;2.87;;
71091;SDS011;58751;50.708;7.134;2022-09-02T02:16:11;2.60;;;2.40;;
71091;SDS011;58751;50.708;7.134;2022-09-02T02:18:36;3.80;;;2.60;;
71091;SDS011;58751;50.708;7.134;2022-09-02T02:21:01;2.90;;;2.20;;
71091;SDS011;58751;50.708;7.134;2022-09-02T02:23:27;4.07;;;2.70;;
71091;SDS011;58751;50.708;7.134;2022-09-02T02:25:52;4.40;;;3.00;;
71091;SDS011;58751;50.708;7.134;2022-09-02T02:28:17;2.90;;;2.60;;
71091;SDS011;58751;50.708;7.134;2022-09-02T02:30:44;5.70;;;2.23;;
71091;SDS011;58751;50.708;7.134;2022-09-02T02:33:09;3.20;;;2.30;;
71091;SDS011;58751;50.708;7.134;2022-09-02T02:35:35;1.90;;;1.80;;
71091;SDS011;58751;50.708;7.134;2022-09-02T02:38:00;2.00;;;1.90;;
71091;SDS011;58751;50.708;7.134;2022-09-02T02:40:25;3.27;;;2.97;;
71091;SDS011;58751;50.708;7.134;2022-09-02T02:42:51;2.80;;;2.60;;
71091;SDS011;58751;50.708;7.134;2022-09-02T02:45:16;5.50;;;3.03;;
71091;SDS011;58751;50.708;7.134;2022-09-02T02:47:43;2.93;;;2.73;;
71091;SDS011;58751;50.708;7.134;2022-09-02T02:50:09;3.23;;;2.47;;
71091;SDS011;58751;50.708;7.134;2022-09-02T02:52:35;5.50;;;2.80;;
71091;SDS011;58751;50.708;7.134;2022-09-02T02:55:00;3.73;;;2.40;;
71091;SDS011;58751;50.708;7.134;2022-09-02T02:57:25;3.33;;;2.30;;
71091;SDS011;58751;50.708;7.134;2022-09-02T02:59:51;2.47;;;2.37;;
71091;SDS011;58751;50.708;7.134;2022-09-02T03:02:16;2.67;;;2.20;;
71091;SDS011;58751;50.708;7.134;2022-09-02T03:04:42;3.20;;;2.37;;
71091;SDS011;58751;50.708;7.134;2022-09-02T03:07:08;4.10;;;2.23;;
71091;SDS011;58751;50.708;7.134;2022-09-02T03:09:33;2.50;;;2.30;;
71091;SDS011;58751;50.708;7.134;2022-09-02T03:11:58;4.83;;;2.80;;
71091;SDS011;58751;50.708;7.134;2022-09-02T03:14:23;3.00;;;2.77;;
71091;SDS011;58751;50.708;7.134;2022-09-02T03:16:49;2.73;;;2.53;;
71091;SDS011;58751;50.708;7.134;2022-09-02T03:19:14;4.67;;;2.43;;
71091;SDS011;58751;50.708;7.134;2022-09-02T03:21:41;3.00;;;2.67;;
71091;SDS011;58751;50.708;7.134;2022-09-02T03:24:06;3.03;;;2.73;;
71091;SDS011;58751;50.708;7.134;2022-09-02T03:26:31;2.93;;;2.73;;
71091;SDS011;58751;50.708;7.134;2022-09-02T03:28:57;5.23;;;2.43;;
71091;SDS011;58751;50.708;7.134;2022-09-02T03:31:22;3.03;;;2.73;;
71091;SDS011;58751;50.708;7.134;2022-09-02T03:33:48;2.93;;;2.70;;
71091;SDS011;58751;50.708;7.134;2022-09-02T03:36:20;2.93;;;2.70;;
71091;SDS011;58751;50.708;7.134;2022-09-02T03:38:47;3.73;;;2.73;;
71091;SDS011;58751;50.708;7.134;2022-09-02T03:41:12;2.43;;;2.13;;
71091;SDS011;58751;50.708;7.134;2022-09-02T03:43:38;3.30;;;2.40;;
71091;SDS011;58751;50.708;7.134;2022-09-02T03:46:03;2.60;;;2.33;;
71091;SDS011;58751;50.708;7.134;2022-09-02T03:48:28;4.13;;;2.80;;
71091;SDS011;58751;50.708;7.134;2022-09-02T03:50:53;3.37;;;3.00;;
71091;SDS011;58751;50.708;7.134;2022-09-02T03:53:19;4.60;;;2.13;;
71091;SDS011;58751;50.708;7.134;2022-09-02T03:55:45;3.93;;;2.53;;
71091;SDS011;58751;50.708;7.134;2022-09-02T03:58:10;3.72;;;2.55;;
71091;SDS011;58751;50.708;7.134;2022-09-02T04:00:36;3.97;;;2.00;;
71091;SDS011;58751;50.708;7.134;2022-09-02T04:03:01;5.07;;;2.53;;
71091;SDS011;58751;50.708;7.134;2022-09-02T04:05:27;6.60;;;2.67;;
71091;SDS011;58751;50.708;7.134;2022-09-02T04:07:52;5.40;;;2.50;;
71091;SDS011;58751;50.708;7.134;2022-09-02T04:10:17;4.63;;;3.00;;
71091;SDS011;58751;50.708;7.134;2022-09-02T04:12:44;3.27;;;2.37;;
71091;SDS011;58751;50.708;7.134;2022-09-02T04:15:10;4.20;;;3.20;;
71091;SDS011;58751;50.708;7.134;2022-09-02T04:23:03;3.70;;;2.70;;
71091;SDS011;58751;50.708;7.134;2022-09-02T04:25:28;3.90;;;2.70;;
71091;SDS011;58751;50.708;7.134;2022-09-02T04:27:55;6.13;;;3.30;;
71091;SDS011;58751;50.708;7.134;2022-09-02T04:30:20;3.20;;;2.53;;
71091;SDS011;58751;50.708;7.134;2022-09-02T04:32:45;5.53;;;2.93;;
71091;SDS011;58751;50.708;7.134;2022-09-02T04:35:10;8.50;;;3.10;;
71091;SDS011;58751;50.708;7.134;2022-09-02T04:37:36;5.23;;;2.77;;
71091;SDS011;58751;50.708;7.134;2022-09-02T04:40:01;5.50;;;2.83;;
71091;SDS011;58751;50.708;7.134;2022-09-02T04:42:26;5.67;;;3.87;;
71091;SDS011;58751;50.708;7.134;2022-09-02T04:44:53;3.00;;;2.80;;
71091;SDS011;58751;50.708;7.134;2022-09-02T04:47:18;3.67;;;3.00;;
71091;SDS011;58751;50.708;7.134;2022-09-02T04:49:44;4.20;;;3.47;;
71091;SDS011;58751;50.708;7.134;2022-09-02T04:52:09;5.37;;;3.47;;
71091;SDS011;58751;50.708;7.134;2022-09-02T04:54:34;4.33;;;3.60;;
71091;SDS011;58751;50.708;7.134;2022-09-02T04:56:59;6.80;;;3.43;;
71091;SDS011;58751;50.708;7.134;2022-09-02T04:59:25;5.63;;;3.87;;
71091;SDS011;58751;50.708;7.134;2022-09-02T05:01:51;4.03;;;3.10;;
71091;SDS011;58751;50.708;7.134;2022-09-02T05:04:16;4.95;;;3.60;;
71091;SDS011;58751;50.708;7.134;2022-09-02T05:06:42;3.53;;;3.23;;
71091;SDS011;58751;50.708;7.134;2022-09-02T05:09:07;3.50;;;3.20;;
71091;SDS011;58751;50.708;7.134;2022-09-02T05:11:32;3.20;;;2.93;;
71091;SDS011;58751;50.708;7.134;2022-09-02T05:13:58;3.07;;;2.87;;
71091;SDS011;58751;50.708;7.134;2022-09-02T05:16:25;6.73;;;4.10;;
71091;SDS011;58751;50.708;7.134;2022-09-02T05:18:52;4.27;;;3.50;;
71091;SDS011;58751;50.708;7.134;2022-09-02T05:21:17;3.93;;;3.47;;
71091;SDS011;58751;50.708;7.134;2022-09-02T05:23:43;4.87;;;2.90;;
71091;SDS011;58751;50.708;7.134;2022-09-02T05:26:09;4.00;;;3.10;;
71091;SDS011;58751;50.708;7.134;2022-09-02T05:28:34;4.70;;;3.33;;
71091;SDS011;58751;50.708;7.134;2022-09-02T05:31:01;4.80;;;3.50;;
71091;SDS011;58751;50.708;7.134;2022-09-02T05:33:26;10.13;;;3.90;;
71091;SDS011;58751;50.708;7.134;2022-09-02T05:35:53;5.60;;;3.50;;
71091;SDS011;58751;50.708;7.134;2022-09-02T05:38:18;5.33;;;3.50;;
71091;SDS011;58751;50.708;7.134;2022-09-02T05:40:43;4.40;;;3.47;;
71091;SDS011;58751;50.708;7.134;2022-09-02T05:43:09;3.77;;;3.37;;
71091;SDS011;58751;50.708;7.134;2022-09-02T05:45:35;6.83;;;3.10;;
71091;SDS011;58751;50.708;7.134;2022-09-02T05:48:01;3.60;;;3.13;;
71091;SDS011;58751;50.708;7.134;2022-09-02T05:50:26;3.80;;;3.47;;
71091;SDS011;58751;50.708;7.134;2022-09-02T05:52:53;3.60;;;3.30;;
71091;SDS011;58751;50.708;7.134;2022-09-02T05:55:18;5.40;;;3.60;;
71091;SDS011;58751;50.708;7.134;2022-09-02T05:57:43;4.13;;;3.40;;
71091;SDS011;58751;50.708;7.134;2022-09-02T06:00:09;4.20;;;3.80;;
71091;SDS011;58751;50.708;7.134;2022-09-02T06:02:34;4.23;;;3.77;;
71091;SDS011;58751;50.708;7.134;2022-09-02T06:05:00;6.47;;;3.50;;
71091;SDS011;58751;50.708;7.134;2022-09-02T06:07:25;3.43;;;3.00;;
71091;SDS011;58751;50.708;7.134;2022-09-02T06:09:51;3.23;;;2.70;;
71091;SDS011;58751;50.708;7.134;2022-09-02T06:12:17;3.47;;;2.57;;
71091;SDS011;58751;50.708;7.134;2022-09-02T06:14:42;3.20;;;2.70;;
71091;SDS011;58751;50.708;7.134;2022-09-02T06:17:07;3.73;;;3.03;;
71091;SDS011;58751;50.708;7.134;2022-09-02T06:19:33;2.63;;;2.40;;
71091;SDS011;58751;50.708;7.134;2022-09-02T06:21:58;2.40;;;2.20;;
71091;SDS011;58751;50.708;7.134;2022-09-02T06:24:24;2.27;;;2.07;;
71091;SDS011;58751;50.708;7.134;2022-09-02T06:26:51;3.90;;;1.83;;
71091;SDS011;58751;50.708;7.134;2022-09-02T06:29:16;2.50;;;2.30;;
71091;SDS011;58751;50.708;7.134;2022-09-02T06:31:42;3.90;;;2.10;;
71091;SDS011;58751;50.708;7.134;2022-09-02T06:34:07;4.70;;;2.20;;
71091;SDS011;58751;50.708;7.134;2022-09-02T06:36:33;5.40;;;2.37;;
71091;SDS011;58751;50.708;7.134;2022-09-02T06:38:58;3.50;;;2.70;;
71091;SDS011;58751;50.708;7.134;2022-09-02T06:41:25;2.47;;;2.27;;
71091;SDS011;58751;50.708;7.134;2022-09-02T06:43:53;2.90;;;1.93;;
71091;SDS011;58751;50.708;7.134;2022-09-02T06:46:19;3.70;;;1.70;;
71091;SDS011;58751;50.708;7.134;2022-09-02T06:48:45;2.60;;;2.10;;
71091;SDS011;58751;50.708;7.134;2022-09-02T06:51:14;4.40;;;2.10;;
71091;SDS011;58751;50.708;7.134;2022-09-02T06:53:39;2.30;;;2.10;;
71091;SDS011;58751;50.708;7.134;2022-09-02T06:56:05;2.60;;;1.70;;
71091;SDS011;58751;50.708;7.134;2022-09-02T06:58:31;2.77;;;2.00;;
71091;SDS011;58751;50.708;7.134;2022-09-02T07:00:58;2.10;;;1.90;;
71091;SDS011;58751;50.708;7.134;2022-09-02T07:03:23;2.70;;;1.60;;
71091;SDS011;58751;50.708;7.134;2022-09-02T07:05:57;3.83;;;2.10;;
71091;SDS011;58751;50.708;7.134;2022-09-02T07:08:22;2.47;;;1.70;;
71091;SDS011;58751;50.708;7.134;2022-09-02T07:10:47;2.10;;;1.90;;
71091;SDS011;58751;50.708;7.134;2022-09-02T07:13:12;1.70;;;1.60;;
71091;SDS011;58751;50.708;7.134;2022-09-02T07:15:37;2.93;;;2.23;;
71091;SDS011;58751;50.708;7.134;2022-09-02T07:18:06;2.60;;;2.40;;
71091;SDS011;58751;50.708;7.134;2022-09-02T07:20:31;5.23;;;2.00;;
71091;SDS011;58751;50.708;7.134;2022-09-02T07:22:56;2.80;;;1.87;;
71091;SDS011;58751;50.708;7.134;2022-09-02T07:25:21;2.30;;;2.00;;
71091;SDS011;58751;50.708;7.134;2022-09-02T07:27:47;2.83;;;1.97;;
71091;SDS011;58751;50.708;7.134;2022-09-02T07:30:12;3.10;;;2.10;;
71091;SDS011;58751;50.708;7.134;2022-09-02T07:32:38;3.37;;;2.10;;
71091;SDS011;58751;50.708;7.134;2022-09-02T07:35:05;2.17;;;2.00;;
71091;SDS011;58751;50.708;7.134;2022-09-02T07:37:31;2.23;;;2.03;;
71091;SDS011;58751;50.708;7.134;2022-09-02T07:39:56;3.87;;;2.40;;
71091;SDS011;58751;50.708;7.134;2022-09-02T07:42:21;2.53;;;1.77;;
71091;SDS011;58751;50.708;7.134;2022-09-02T07:44:47;1.80;;;1.70;;
71091;SDS011;58751;50.708;7.134;2022-09-02T07:47:12;2.37;;;1.50;;
71091;SDS011;58751;50.708;7.134;2022-09-02T07:49:37;2.50;;;1.87;;
71091;SDS011;58751;50.708;7.134;2022-09-02T07:52:04;2.10;;;1.87;;
71091;SDS011;58751;50.708;7.134;2022-09-02T07:54:29;8.53;;;2.63;;
71091;SDS011;58751;50.708;7.134;2022-09-02T07:56:54;1.70;;;1.60;;
71091;SDS011;58751;50.708;7.134;2022-09-02T07:59:19;1.97;;;1.77;;
71091;SDS011;58751;50.708;7.134;2022-09-02T08:01:45;2.80;;;1.70;;
71091;SDS011;58751;50.708;7.134;2022-09-02T08:04:10;1.93;;;1.83;;
71091;SDS011;58751;50.708;7.134;2022-09-02T08:06:36;2.30;;;2.10;;
71091;SDS011;58751;50.708;7.134;2022-09-02T08:09:02;1.97;;;1.70;;
71091;SDS011;58751;50.708;7.134;2022-09-02T08:11:28;3.80;;;2.10;;
71091;SDS011;58751;50.708;7.134;2022-09-02T08:13:53;2.50;;;1.63;;
71091;SDS011;58751;50.708;7.134;2022-09-02T08:16:18;2.13;;;1.93;;
71091;SDS011;58751;50.708;7.134;2022-09-02T08:18:43;4.10;;;1.90;;
71091;SDS011;58751;50.708;7.134;2022-09-02T08:21:09;3.33;;;1.60;;
71091;SDS011;58751;50.708;7.134;2022-09-02T08:23:34;2.87;;;1.80;;
71091;SDS011;58751;50.708;7.134;2022-09-02T08:26:01;5.17;;;1.87;;
71091;SDS011;58751;50.708;7.134;2022-09-02T08:28:26;2.10;;;1.60;;
71091;SDS011;58751;50.708;7.134;2022-09-02T08:30:51;2.20;;;2.00;;
71091;SDS011;58751;50.708;7.134;2022-09-02T08:33:17;2.10;;;2.00;;
71091;SDS011;58751;50.708;7.134;2022-09-02T08:35:42;3.43;;;2.20;;
71091;SDS011;58751;50.708;7.134;2022-09-02T08:38:07;1.80;;;1.70;;
71091;SDS011;58751;50.708;7.134;2022-09-02T08:40:34;3.70;;;1.50;;
71091;SDS011;58751;50.708;7.134;2022-09-02T08:43:01;2.80;;;1.73;;
71091;SDS011;58751;50.708;7.134;2022-09-02T08:45:27;2.10;;;2.00;;
71091;SDS011;58751;50.708;7.134;2022-09-02T08:47:57;2.33;;;1.47;;
71091;SDS011;58751;50.708;7.134;2022-09-02T08:50:22;1.70;;;1.60;;
71091;SDS011;58751;50.708;7.134;2022-09-02T08:52:55;3.30;;;1.57;;
71091;SDS011;58751;50.708;7.134;2022-09-02T08:55:23;1.70;;;1.60;;
71091;SDS011;58751;50.708;7.134;2022-09-02T08:57:50;2.13;;;1.50;;
71091;SDS011;58751;50.708;7.134;2022-09-02T09:00:17;1.87;;;1.77;;
71091;SDS011;58751;50.708;7.134;2022-09-02T09:02:45;3.43;;;1.90;;
71091;SDS011;58751;50.708;7.134;2022-09-02T09:05:15;2.20;;;2.00;;
71091;SDS011;58751;50.708;7.134;2022-09-02T09:07:45;2.13;;;1.90;;
71091;SDS011;58751;50.708;7.134;2022-09-02T09:10:16;2.00;;;1.80;;
71091;SDS011;58751;50.708;7.134;2022-09-02T09:12:55;2.20;;;2.00;;
71091;SDS011;58751;50.708;7.134;2022-09-02T09:15:28;2.73;;;1.70;;
71091;SDS011;58751;50.708;7.134;2022-09-02T09:17:55;8.33;;;1.97;;
71091;SDS011;58751;50.708;7.134;2022-09-02T09:20:23;2.30;;;1.97;;
71091;SDS011;58751;50.708;7.134;2022-09-02T09:22:49;2.60;;;2.00;;
71091;SDS011;58751;50.708;7.134;2022-09-02T09:25:16;2.83;;;2.07;;
71091;SDS011;58751;50.708;7.134;2022-09-02T09:27:41;1.47;;;1.37;;
71091;SDS011;58751;50.708;7.134;2022-09-02T09:30:07;1.60;;;1.50;;
71091;SDS011;58751;50.708;7.134;2022-09-02T09:32:35;1.80;;;1.70;;
71091;SDS011;58751;50.708;7.134;2022-09-02T09:35:03;3.07;;;1.63;;
71091;SDS011;58751;50.708;7.134;2022-09-02T09:37:29;3.00;;;1.70;;
71091;SDS011;58751;50.708;7.134;2022-09-02T09:39:55;2.80;;;1.60;;
71091;SDS011;58751;50.708;7.134;2022-09-02T09:42:28;2.27;;;1.27;;
71091;SDS011;58751;50.708;7.134;2022-09-02T09:44:53;3.43;;;1.80;;
71091;SDS011;58751;50.708;7.134;2022-09-02T09:47:20;1.67;;;1.57;;
71091;SDS011;58751;50.708;7.134;2022-09-02T09:49:48;1.67;;;1.53;;
71091;SDS011;58751;50.708;7.134;2022-09-02T09:52:23;2.53;;;1.60;;
71091;SDS011;58751;50.708;7.134;2022-09-02T09:54:58;2.20;;;1.60;;
71091;SDS011;58751;50.708;7.134;2022-09-02T09:57:29;1.80;;;1.27;;
71091;SDS011;58751;50.708;7.134;2022-09-02T09:59:55;4.17;;;1.63;;
71091;SDS011;58751;50.708;7.134;2022-09-02T10:02:21;1.60;;;1.50;;
71091;SDS011;58751;50.708;7.134;2022-09-02T10:04:48;1.83;;;1.13;;
71091;SDS011;58751;50.708;7.134;2022-09-02T10:07:13;2.27;;;1.80;;
71091;SDS011;58751;50.708;7.134;2022-09-02T10:10:04;1.93;;;1.70;;
71091;SDS011;58751;50.708;7.134;2022-09-02T10:12:32;2.00;;;1.70;;
71091;SDS011;58751;50.708;7.134;2022-09-02T10:14:57;3.23;;;1.33;;
71091;SDS011;58751;50.708;7.134;2022-09-02T10:17:26;3.30;;;1.63;;
71091;SDS011;58751;50.708;7.134;2022-09-02T10:19:58;2.03;;;1.30;;
71091;SDS011;58751;50.708;7.134;2022-09-02T10:22:39;1.87;;;1.67;;
71091;SDS011;58751;50.708;7.134;2022-09-02T10:25:10;1.90;;;1.80;;
71091;SDS011;58751;50.708;7.134;2022-09-02T10:27:44;2.80;;;1.40;;
71091;SDS011;58751;50.708;7.134;2022-09-02T10:30:14;1.80;;;1.70;;
71091;SDS011;58751;50.708;7.134;2022-09-02T10:32:47;4.97;;;1.90;;
71091;SDS011;58751;50.708;7.134;2022-09-02T10:35:17;3.00;;;1.90;;
71091;SDS011;58751;50.708;7.134;2022-09-02T10:37:50;1.40;;;1.30;;
71091;SDS011;58751;50.708;7.134;2022-09-02T10:40:18;7.73;;;1.77;;
71091;SDS011;58751;50.708;7.134;2022-09-02T10:42:50;1.83;;;1.43;;
71091;SDS011;58751;50.708;7.134;2022-09-02T10:45:22;2.67;;;1.60;;
71091;SDS011;58751;50.708;7.134;2022-09-02T10:47:49;1.97;;;1.50;;
71091;SDS011;58751;50.708;7.134;2022-09-02T10:50:19;1.80;;;1.70;;
71091;SDS011;58751;50.708;7.134;2022-09-02T10:52:52;1.73;;;1.60;;
71091;SDS011;58751;50.708;7.134;2022-09-02T10:55:20;1.60;;;1.50;;
71091;SDS011;58751;50.708;7.134;2022-09-02T10:57:49;2.77;;;1.43;;
71091;SDS011;58751;50.708;7.134;2022-09-02T11:00:16;2.63;;;1.40;;
71091;SDS011;58751;50.708;7.134;2022-09-02T11:02:44;1.97;;;1.17;;
71091;SDS011;58751;50.708;7.134;2022-09-02T11:05:10;1.57;;;1.10;;
71091;SDS011;58751;50.708;7.134;2022-09-02T11:07:39;6.20;;;1.47;;
71091;SDS011;58751;50.708;7.134;2022-09-02T11:10:07;2.00;;;1.40;;
71091;SDS011;58751;50.708;7.134;2022-09-02T11:12:35;2.23;;;1.47;;
71091;SDS011;58751;50.708;7.134;2022-09-02T11:15:03;1.80;;;1.70;;
71091;SDS011;58751;50.708;7.134;2022-09-02T11:17:32;2.57;;;1.70;;
71091;SDS011;58751;50.708;7.134;2022-09-02T11:20:00;2.33;;;1.83;;
71091;SDS011;58751;50.708;7.134;2022-09-02T11:22:27;3.60;;;2.03;;
71091;SDS011;58751;50.708;7.134;2022-09-02T11:24:56;1.53;;;1.43;;
71091;SDS011;58751;50.708;7.134;2022-09-02T11:27:27;1.87;;;1.50;;
71091;SDS011;58751;50.708;7.134;2022-09-02T11:29:56;3.00;;;1.40;;
71091;SDS011;58751;50.708;7.134;2022-09-02T11:32:25;1.70;;;1.60;;
71091;SDS011;58751;50.708;7.134;2022-09-02T11:34:53;3.43;;;1.60;;
71091;SDS011;58751;50.708;7.134;2022-09-02T11:37:25;1.40;;;1.30;;
71091;SDS011;58751;50.708;7.134;2022-09-02T11:39:51;4.60;;;2.17;;
71091;SDS011;58751;50.708;7.134;2022-09-02T11:42:24;3.63;;;2.00;;
71091;SDS011;58751;50.708;7.134;2022-09-02T11:45:07;2.27;;;1.37;;
71091;SDS011;58751;50.708;7.134;2022-09-02T11:47:42;2.80;;;1.63;;
71091;SDS011;58751;50.708;7.134;2022-09-02T11:50:17;2.00;;;1.80;;
71091;SDS011;58751;50.708;7.134;2022-09-02T11:52:52;1.53;;;1.40;;
71091;SDS011;58751;50.708;7.134;2022-09-02T11:55:20;2.17;;;1.80;;
71091;SDS011;58751;50.708;7.134;2022-09-02T11:57:51;2.70;;;1.53;;
71091;SDS011;58751;50.708;7.134;2022-09-02T12:00:24;4.40;;;1.50;;
71091;SDS011;58751;50.708;7.134;2022-09-02T12:02:50;1.33;;;1.23;;
71091;SDS011;58751;50.708;7.134;2022-09-02T12:08:00;1.53;;;1.40;;
71091;SDS011;58751;50.708;7.134;2022-09-02T12:13:11;2.60;;;1.50;;
71091;SDS011;58751;50.708;7.134;2022-09-02T12:18:35;2.47;;;1.60;;
71091;SDS011;58751;50.708;7.134;2022-09-02T12:21:04;2.27;;;1.60;;
71091;SDS011;58751;50.708;7.134;2022-09-02T12:26:14;2.30;;;1.37;;
71091;SDS011;58751;50.708;7.134;2022-09-02T12:28:41;1.93;;;1.80;;
71091;SDS011;58751;50.708;7.134;2022-09-02T12:31:08;1.73;;;1.47;;
71091;SDS011;58751;50.708;7.134;2022-09-02T12:33:34;1.60;;;1.50;;
71091;SDS011;58751;50.708;7.134;2022-09-02T12:35:59;5.57;;;1.93;;
71091;SDS011;58751;50.708;7.134;2022-09-02T12:38:26;3.30;;;1.77;;
71091;SDS011;58751;50.708;7.134;2022-09-02T12:40:53;2.23;;;1.70;;
71091;SDS011;58751;50.708;7.134;2022-09-02T12:43:21;1.77;;;1.60;;
71091;SDS011;58751;50.708;7.134;2022-09-02T12:45:50;2.20;;;1.40;;
71091;SDS011;58751;50.708;7.134;2022-09-02T12:48:17;3.20;;;1.37;;
71091;SDS011;58751;50.708;7.134;2022-09-02T12:50:50;1.27;;;1.20;;
71091;SDS011;58751;50.708;7.134;2022-09-02T12:53:27;2.60;;;1.73;;
71091;SDS011;58751;50.708;7.134;2022-09-02T12:55:54;1.60;;;1.50;;
71091;SDS011;58751;50.708;7.134;2022-09-02T12:58:20;2.70;;;1.40;;
71091;SDS011;58751;50.708;7.134;2022-09-02T13:00:53;5.63;;;1.50;;
71091;SDS011;58751;50.708;7.134;2022-09-02T13:03:23;4.40;;;1.30;;
71091;SDS011;58751;50.708;7.134;2022-09-02T13:05:55;2.47;;;1.70;;
71091;SDS011;58751;50.708;7.134;2022-09-02T13:08:33;1.60;;;1.50;;
71091;SDS011;58751;50.708;7.134;2022-09-02T13:11:30;2.10;;;1.67;;
71091;SDS011;58751;50.708;7.134;2022-09-02T13:14:04;2.30;;;1.77;;
71091;SDS011;58751;50.708;7.134;2022-09-02T13:16:38;2.60;;;1.77;;
71091;SDS011;58751;50.708;7.134;2022-09-02T13:24:48;2.43;;;1.50;;
71091;SDS011;58751;50.708;7.134;2022-09-02T13:27:21;3.53;;;1.90;;
71091;SDS011;58751;50.708;7.134;2022-09-02T13:32:33;2.20;;;1.47;;
71091;SDS011;58751;50.708;7.134;2022-09-02T13:35:00;1.63;;;1.53;;
71091;SDS011;58751;50.708;7.134;2022-09-02T13:37:26;1.73;;;1.63;;
71091;SDS011;58751;50.708;7.134;2022-09-02T13:39:51;4.50;;;1.60;;
71091;SDS011;58751;50.708;7.134;2022-09-02T13:42:17;1.60;;;1.50;;
71091;SDS011;58751;50.708;7.134;2022-09-02T13:44:43;2.43;;;1.50;;
71091;SDS011;58751;50.708;7.134;2022-09-02T13:47:11;2.07;;;1.30;;
71091;SDS011;58751;50.708;7.134;2022-09-02T13:49:39;3.53;;;1.73;;
71091;SDS011;58751;50.708;7.134;2022-09-02T13:52:05;3.83;;;1.70;;
71091;SDS011;58751;50.708;7.134;2022-09-02T13:54:32;1.33;;;1.23;;
71091;SDS011;58751;50.708;7.134;2022-09-02T13:56:58;2.73;;;1.60;;
71091;SDS011;58751;50.708;7.134;2022-09-02T13:59:31;1.60;;;1.50;;
71091;SDS011;58751;50.708;7.134;2022-09-02T14:01:57;1.50;;;1.40;;
71091;SDS011;58751;50.708;7.134;2022-09-02T14:04:22;2.63;;;1.37;;
71091;SDS011;58751;50.708;7.134;2022-09-02T14:06:49;1.60;;;1.50;;
71091;SDS011;58751;50.708;7.134;2022-09-02T14:09:17;2.10;;;1.70;;
71091;SDS011;58751;50.708;7.134;2022-09-02T14:11:45;2.93;;;1.70;;
71091;SDS011;58751;50.708;7.134;2022-09-02T14:14:12;2.90;;;1.80;;
71091;SDS011;58751;50.708;7.134;2022-09-02T14:16:37;2.00;;;1.27;;
71091;SDS011;58751;50.708;7.134;2022-09-02T14:19:03;5.13;;;1.60;;
71091;SDS011;58751;50.708;7.134;2022-09-02T14:21:29;1.53;;;1.43;;
71091;SDS011;58751;50.708;7.134;2022-09-02T14:23:57;2.60;;;1.53;;
71091;SDS011;58751;50.708;7.134;2022-09-02T14:26:23;2.20;;;1.90;;
71091;SDS011;58751;50.708;7.134;2022-09-02T14:28:49;2.80;;;2.00;;
71091;SDS011;58751;50.708;7.134;2022-09-02T14:31:21;2.50;;;1.70;;
71091;SDS011;58751;50.708;7.134;2022-09-02T14:33:47;1.80;;;1.70;;
71091;SDS011;58751;50.708;7.134;2022-09-02T14:36:28;2.43;;;1.53;;
71091;SDS011;58751;50.708;7.134;2022-09-02T14:38:55;3.23;;;1.70;;
71091;SDS011;58751;50.708;7.134;2022-09-02T14:41:23;3.63;;;1.43;;
71091;SDS011;58751;50.708;7.134;2022-09-02T14:43:49;1.57;;;1.47;;
71091;SDS011;58751;50.708;7.134;2022-09-02T14:46:19;2.30;;;1.90;;
71091;SDS011;58751;50.708;7.134;2022-09-02T14:48:49;1.47;;;1.37;;
71091;SDS011;58751;50.708;7.134;2022-09-02T14:51:16;2.07;;;1.87;;
71091;SDS011;58751;50.708;7.134;2022-09-02T14:53:42;2.60;;;1.53;;
71091;SDS011;58751;50.708;7.134;2022-09-02T14:56:07;3.60;;;2.03;;
71091;SDS011;58751;50.708;7.134;2022-09-02T14:58:34;1.93;;;1.83;;
71091;SDS011;58751;50.708;7.134;2022-09-02T15:01:00;1.73;;;1.63;;
71091;SDS011;58751;50.708;7.134;2022-09-02T15:03:25;3.83;;;1.27;;
71091;SDS011;58751;50.708;7.134;2022-09-02T15:05:51;1.63;;;1.53;;
71091;SDS011;58751;50.708;7.134;2022-09-02T15:08:16;2.77;;;1.70;;
71091;SDS011;58751;50.708;7.134;2022-09-02T15:10:42;1.67;;;1.57;;
71091;SDS011;58751;50.708;7.134;2022-09-02T15:13:08;1.73;;;1.63;;